Time;durP1;ratioP1;P1;durP2;ratioP2;P2;SDS_P1;SDS_P2;PMS_P1;PMS_P2;Temp;Humidity;BMP_temperature;BMP_pressure;BME280_temperature;BME280_humidity;BME280_pressure;Samples;Min_cycle;Max_cycle;Signal;HPM_P1;HPM_P2
2023/03/17 00:01:15;;;;;;;3.45;1.70;;;7.90;92.30;;;;;;4937258;28;20059;-45
2023/03/17 00:03:45;;;;;;;2.75;1.50;;;7.90;92.30;;;;;;4942291;28;20568;-46
2023/03/17 00:06:23;;;;;;;4.13;1.90;;;7.90;92.20;;;;;;4945433;28;20528;-46
2023/03/17 00:08:49;;;;;;;4.88;1.45;;;8.00;92.10;;;;;;4943222;28;20893;-46
2023/03/17 00:11:16;;;;;;;3.67;1.42;;;8.00;91.90;;;;;;4944767;28;20142;-47
2023/03/17 00:13:43;;;;;;;3.55;1.58;;;8.00;91.80;;;;;;4936396;28;20490;-45
2023/03/17 00:16:24;;;;;;;3.67;1.67;;;8.00;91.80;;;;;;4944761;29;20059;-47
2023/03/17 00:18:52;;;;;;;3.28;1.60;;;8.00;91.70;;;;;;4940432;28;20086;-44
2023/03/17 00:21:30;;;;;;;5.13;1.92;;;8.00;91.60;;;;;;4942700;28;20141;-47
2023/03/17 00:23:56;;;;;;;3.72;1.58;;;8.00;91.70;;;;;;4943950;28;20183;-47
2023/03/17 00:26:24;;;;;;;3.80;1.40;;;8.00;91.80;;;;;;4946583;28;20502;-45
2023/03/17 00:28:50;;;;;;;3.85;1.60;;;8.00;91.70;;;;;;4947733;28;20087;-45
2023/03/17 00:31:19;;;;;;;4.00;1.58;;;8.00;91.70;;;;;;4942186;29;20047;-47
2023/03/17 00:33:46;;;;;;;3.00;1.38;;;7.90;91.80;;;;;;4948092;28;20075;-46
2023/03/17 00:36:16;;;;;;;4.45;1.67;;;7.90;91.80;;;;;;4945856;28;20050;-45
2023/03/17 00:38:43;;;;;;;4.03;1.40;;;7.90;91.80;;;;;;4945349;28;20047;-46
2023/03/17 00:41:11;;;;;;;4.40;1.70;;;7.90;91.80;;;;;;4938991;29;20421;-47
2023/03/17 00:43:37;;;;;;;3.58;1.65;;;7.90;91.80;;;;;;4942748;28;20078;-44
2023/03/17 00:46:13;;;;;;;7.90;2.25;;;7.90;91.80;;;;;;4945620;28;20409;-44
2023/03/17 00:48:40;;;;;;;4.35;1.80;;;7.90;91.80;;;;;;4945450;28;20639;-48
2023/03/17 00:51:06;;;;;;;4.20;1.40;;;7.80;91.80;;;;;;4943109;28;20186;-48
2023/03/17 00:53:33;;;;;;;3.65;1.65;;;7.90;91.80;;;;;;4945622;28;20130;-44
2023/03/17 00:55:59;;;;;;;3.08;1.33;;;7.90;91.80;;;;;;4945461;28;20048;-43
2023/03/17 00:58:29;;;;;;;4.90;1.48;;;7.80;91.90;;;;;;4943936;28;20492;-47
2023/03/17 01:00:55;;;;;;;3.90;1.83;;;7.80;91.90;;;;;;4942089;28;20070;-45
2023/03/17 01:03:22;;;;;;;3.50;1.60;;;7.80;91.90;;;;;;4948710;28;20052;-47
2023/03/17 01:05:50;;;;;;;4.70;1.92;;;7.80;91.90;;;;;;4943235;28;20062;-47
2023/03/17 01:08:16;;;;;;;5.57;1.65;;;7.80;91.90;;;;;;4945204;28;20408;-46
2023/03/17 01:10:42;;;;;;;3.35;1.35;;;7.80;92.00;;;;;;4944945;28;20047;-43
2023/03/17 01:13:11;;;;;;;4.28;1.60;;;7.80;92.00;;;;;;4937946;28;20070;-47
2023/03/17 01:15:40;;;;;;;4.63;1.67;;;7.80;92.00;;;;;;4942719;28;20063;-47
2023/03/17 01:18:06;;;;;;;3.30;1.45;;;7.80;92.00;;;;;;4946053;28;20062;-44
2023/03/17 01:20:33;;;;;;;7.90;1.95;;;7.80;92.00;;;;;;4942039;28;20055;-47
2023/03/17 01:23:01;;;;;;;6.25;1.60;;;7.80;91.80;;;;;;4943107;28;20062;-47
2023/03/17 01:25:27;;;;;;;4.60;1.67;;;7.80;91.80;;;;;;4946966;28;20130;-47
2023/03/17 01:27:58;;;;;;;4.70;1.75;;;7.80;91.80;;;;;;4940745;28;20046;-46
2023/03/17 01:30:33;;;;;;;4.32;1.80;;;7.80;91.80;;;;;;4947532;28;20934;-48
2023/03/17 01:33:00;;;;;;;3.85;1.85;;;7.80;91.90;;;;;;4946845;28;20085;-46
2023/03/17 01:35:28;;;;;;;3.65;1.50;;;7.80;91.90;;;;;;4942536;28;20456;-49
2023/03/17 01:37:56;;;;;;;3.85;1.95;;;7.70;91.90;;;;;;4942035;28;20047;-45
2023/03/17 01:40:29;;;;;;;4.55;1.70;;;7.70;92.00;;;;;;4945908;28;20047;-48
2023/03/17 01:43:07;;;;;;;6.43;1.60;;;7.70;92.00;;;;;;4943370;28;20091;-45
2023/03/17 01:46:24;;;;;;;3.60;1.42;;;7.70;92.20;;;;;;4948120;28;20062;-46
2023/03/17 01:49:14;;;;;;;3.55;1.60;;;7.60;92.30;;;;;;4916500;28;20468;-43
2023/03/17 01:51:52;;;;;;;3.38;1.65;;;7.60;92.30;;;;;;4948100;28;20729;-46
2023/03/17 01:54:40;;;;;;;4.55;1.50;;;7.60;92.30;;;;;;4941865;28;20075;-43
2023/03/17 01:57:17;;;;;;;5.88;2.10;;;7.60;92.50;;;;;;4944307;28;20413;-45
2023/03/17 02:00:07;;;;;;;5.30;1.48;;;7.60;92.40;;;;;;4946060;28;20051;-45
2023/03/17 02:02:36;;;;;;;5.07;1.42;;;7.60;92.90;;;;;;4947414;28;20059;-47
2023/03/17 02:05:08;;;;;;;3.67;1.50;;;7.60;92.40;;;;;;4943495;28;20049;-47
2023/03/17 02:07:34;;;;;;;4.30;1.77;;;7.60;92.50;;;;;;4942987;28;20553;-48
2023/03/17 02:10:02;;;;;;;4.60;1.80;;;7.60;92.90;;;;;;4938856;28;20174;-46
2023/03/17 02:12:29;;;;;;;4.35;1.83;;;7.60;92.50;;;;;;4945152;28;20050;-45
2023/03/17 02:14:55;;;;;;;3.50;1.77;;;7.50;92.60;;;;;;4940556;28;20062;-43
2023/03/17 02:17:23;;;;;;;3.90;1.70;;;7.50;92.60;;;;;;4942472;28;20187;-45
2023/03/17 02:19:50;;;;;;;3.28;1.48;;;7.50;92.70;;;;;;4939384;28;20065;-44
2023/03/17 02:22:17;;;;;;;4.75;1.90;;;7.50;92.60;;;;;;4943887;28;20070;-46
2023/03/17 02:24:55;;;;;;;4.50;2.05;;;7.50;92.60;;;;;;4943173;28;20560;-45
2023/03/17 02:27:33;;;;;;;3.67;1.60;;;7.50;92.60;;;;;;4937597;28;20359;-45
2023/03/17 02:29:59;;;;;;;3.78;1.75;;;7.50;92.60;;;;;;4945170;28;20055;-43
2023/03/17 02:32:25;;;;;;;4.40;1.50;;;7.50;92.60;;;;;;4947498;28;20062;-46
2023/03/17 02:34:51;;;;;;;4.82;1.60;;;7.50;92.60;;;;;;4941632;28;20047;-44
2023/03/17 02:37:18;;;;;;;6.38;1.70;;;7.50;92.70;;;;;;4945053;28;20063;-46
2023/03/17 02:39:44;;;;;;;3.53;1.77;;;7.50;92.70;;;;;;4945217;28;20066;-47
2023/03/17 02:42:11;;;;;;;3.55;1.77;;;7.50;92.70;;;;;;4942185;28;20059;-47
2023/03/17 02:44:37;;;;;;;5.75;1.73;;;7.50;92.60;;;;;;4942341;28;20489;-46
2023/03/17 02:47:04;;;;;;;5.13;1.80;;;7.50;92.60;;;;;;4944453;28;20053;-45
2023/03/17 02:49:31;;;;;;;4.22;2.00;;;7.50;92.70;;;;;;4945667;28;20059;-46
2023/03/17 02:51:57;;;;;;;3.53;1.90;;;7.50;92.70;;;;;;4943763;29;20047;-46
2023/03/17 02:54:22;;;;;;;4.97;2.17;;;7.50;92.60;;;;;;4943905;28;20110;-46
2023/03/17 02:56:48;;;;;;;3.70;1.73;;;7.50;92.60;;;;;;4941209;28;20106;-45
2023/03/17 02:59:15;;;;;;;5.35;2.05;;;7.50;93.10;;;;;;4940278;28;20056;-46
2023/03/17 03:01:40;;;;;;;5.63;1.88;;;7.50;92.60;;;;;;4941900;28;20062;-43
2023/03/17 03:04:07;;;;;;;4.80;1.80;;;7.50;92.70;;;;;;4942180;28;20051;-46
2023/03/17 03:06:33;;;;;;;4.43;1.50;;;7.50;92.70;;;;;;4938968;28;20059;-45
2023/03/17 03:08:59;;;;;;;4.57;1.85;;;7.50;92.70;;;;;;4943926;28;20047;-44
2023/03/17 03:11:25;;;;;;;5.00;1.73;;;7.50;92.70;;;;;;4945239;28;20093;-41
2023/03/17 03:13:51;;;;;;;4.65;1.77;;;7.50;92.70;;;;;;4943697;28;20055;-43
2023/03/17 03:16:17;;;;;;;5.10;1.88;;;7.50;92.70;;;;;;4942095;28;20118;-48
2023/03/17 03:18:42;;;;;;;3.65;1.55;;;7.50;92.70;;;;;;4940908;28;20065;-43
2023/03/17 03:21:09;;;;;;;4.35;1.60;;;7.50;92.70;;;;;;4943482;28;20138;-47
2023/03/17 03:23:35;;;;;;;4.35;1.63;;;7.50;92.70;;;;;;4941146;28;20134;-47
2023/03/17 03:26:01;;;;;;;3.70;1.65;;;7.50;92.60;;;;;;4944430;28;20130;-43
2023/03/17 03:28:26;;;;;;;5.20;1.63;;;7.50;92.60;;;;;;4943518;28;20055;-44
2023/03/17 03:30:52;;;;;;;4.95;1.90;;;7.50;92.60;;;;;;4944076;28;20125;-44
2023/03/17 03:33:18;;;;;;;3.45;1.48;;;7.50;92.70;;;;;;4937355;28;20117;-47
2023/03/17 03:35:44;;;;;;;3.78;1.77;;;7.50;92.70;;;;;;4944571;28;20055;-44
2023/03/17 03:38:11;;;;;;;3.90;1.75;;;7.50;92.80;;;;;;4941424;28;20058;-43
2023/03/17 03:40:37;;;;;;;4.07;1.73;;;7.50;92.80;;;;;;4940454;28;20051;-44
2023/03/17 03:43:04;;;;;;;4.68;1.30;;;7.40;92.80;;;;;;4946362;28;20082;-45
2023/03/17 03:45:30;;;;;;;5.72;1.70;;;7.50;92.80;;;;;;4941844;28;20160;-46
2023/03/17 03:47:56;;;;;;;2.78;1.13;;;7.40;92.80;;;;;;4941242;28;20062;-43
2023/03/17 03:50:22;;;;;;;3.25;1.70;;;7.40;92.90;;;;;;4942956;28;20042;-44
2023/03/17 03:52:48;;;;;;;3.65;1.50;;;7.40;92.90;;;;;;4946738;28;20509;-46
2023/03/17 03:55:14;;;;;;;3.58;1.40;;;7.40;92.90;;;;;;4943011;28;20047;-44
2023/03/17 03:57:40;;;;;;;3.05;1.38;;;7.40;93.00;;;;;;4944396;28;20043;-44
2023/03/17 04:00:07;;;;;;;4.05;1.38;;;7.30;92.90;;;;;;4943615;28;20067;-44
2023/03/17 04:02:33;;;;;;;3.40;1.77;;;7.40;92.90;;;;;;4944129;28;20458;-45
2023/03/17 04:05:00;;;;;;;4.00;1.50;;;7.40;92.90;;;;;;4948991;28;20126;-45
2023/03/17 04:07:25;;;;;;;3.97;1.50;;;7.30;92.90;;;;;;4942667;28;20047;-51
2023/03/17 04:09:51;;;;;;;4.75;1.48;;;7.30;92.90;;;;;;4944962;28;20085;-43
2023/03/17 04:12:17;;;;;;;5.40;1.45;;;7.30;92.90;;;;;;4944011;28;20051;-42
2023/03/17 04:14:43;;;;;;;4.53;1.45;;;7.40;92.90;;;;;;4947224;28;20047;-41
2023/03/17 04:17:13;;;;;;;3.03;1.30;;;7.30;92.90;;;;;;4948512;28;20603;-46
2023/03/17 04:19:39;;;;;;;3.63;1.45;;;7.30;92.90;;;;;;4947007;28;20134;-42
2023/03/17 04:22:07;;;;;;;5.20;1.60;;;7.30;93.00;;;;;;4943164;28;20047;-41
2023/03/17 04:24:34;;;;;;;4.20;1.77;;;7.30;93.10;;;;;;4941465;28;20069;-41
2023/03/17 04:27:00;;;;;;;3.90;1.42;;;7.30;93.10;;;;;;4948806;28;20760;-41
2023/03/17 04:29:26;;;;;;;3.22;1.60;;;7.30;93.10;;;;;;4949972;28;20051;-41
2023/03/17 04:31:52;;;;;;;4.53;1.50;;;7.30;93.10;;;;;;4951287;28;20579;-42
2023/03/17 04:34:18;;;;;;;3.47;1.42;;;7.30;93.10;;;;;;4950323;28;20051;-43
2023/03/17 04:36:46;;;;;;;3.53;1.50;;;7.30;93.00;;;;;;4947951;28;20063;-41
2023/03/17 04:39:12;;;;;;;4.72;1.80;;;7.30;93.00;;;;;;4945047;28;20249;-40
2023/03/17 04:41:38;;;;;;;5.35;1.35;;;7.40;93.00;;;;;;4947462;28;20083;-41
2023/03/17 04:44:05;;;;;;;2.38;1.08;;;7.30;93.00;;;;;;4945684;28;20512;-42
2023/03/17 04:46:30;;;;;;;3.13;1.17;;;7.30;93.10;;;;;;4946399;28;20098;-42
2023/03/17 04:48:56;;;;;;;3.03;1.52;;;7.30;93.10;;;;;;4948542;28;20524;-40
2023/03/17 04:51:22;;;;;;;3.05;1.52;;;7.30;93.10;;;;;;4949951;28;20043;-41
2023/03/17 04:53:48;;;;;;;4.43;1.70;;;7.30;93.10;;;;;;4947278;28;20074;-42
2023/03/17 04:56:14;;;;;;;3.08;1.35;;;7.30;93.20;;;;;;4947215;28;20126;-42
2023/03/17 04:58:40;;;;;;;2.50;1.27;;;7.30;93.20;;;;;;4949634;28;20179;-42
2023/03/17 05:01:07;;;;;;;3.38;1.90;;;7.30;93.30;;;;;;4947550;28;20515;-41
2023/03/17 05:03:33;;;;;;;2.92;1.35;;;7.30;93.30;;;;;;4944133;28;20055;-42
2023/03/17 05:05:59;;;;;;;3.60;1.48;;;7.30;93.30;;;;;;4947548;28;20065;-42
2023/03/17 05:08:27;;;;;;;2.58;1.30;;;7.30;93.30;;;;;;4940814;28;20047;-40
2023/03/17 05:10:53;;;;;;;4.35;1.45;;;7.30;93.30;;;;;;4947853;28;20055;-41
2023/03/17 05:13:19;;;;;;;3.63;1.13;;;7.30;93.30;;;;;;4947429;28;20073;-42
2023/03/17 05:15:50;;;;;;;2.70;1.25;;;7.30;93.40;;;;;;4948194;28;20059;-41
2023/03/17 05:18:17;;;;;;;4.05;1.33;;;7.30;93.40;;;;;;4949028;28;20051;-41
2023/03/17 05:20:43;;;;;;;3.20;1.40;;;7.20;93.40;;;;;;4947097;28;20078;-43
2023/03/17 05:23:08;;;;;;;2.83;1.27;;;7.20;93.40;;;;;;4947449;28;20505;-43
2023/03/17 05:25:35;;;;;;;3.60;1.40;;;7.20;93.50;;;;;;4946998;28;20047;-42
2023/03/17 05:28:01;;;;;;;3.63;1.38;;;7.20;93.60;;;;;;4945354;28;20147;-41
2023/03/17 05:30:27;;;;;;;2.97;1.27;;;7.20;93.70;;;;;;4945814;28;20516;-39
2023/03/17 05:32:53;;;;;;;4.10;1.35;;;7.20;93.70;;;;;;4948841;28;20047;-43
2023/03/17 05:35:19;;;;;;;6.18;1.75;;;7.20;93.80;;;;;;4946220;28;20047;-40
2023/03/17 05:37:45;;;;;;;2.85;1.48;;;7.20;93.90;;;;;;4942325;28;20098;-43
2023/03/17 05:40:13;;;;;;;4.13;1.20;;;7.20;93.90;;;;;;4940069;28;20509;-41
2023/03/17 05:42:40;;;;;;;5.57;1.38;;;7.20;94.00;;;;;;4943387;28;20145;-41
2023/03/17 05:45:06;;;;;;;4.05;1.45;;;7.20;94.00;;;;;;4942855;28;20055;-41
2023/03/17 05:47:32;;;;;;;3.47;1.30;;;7.20;94.00;;;;;;4945551;28;20069;-37
2023/03/17 05:50:00;;;;;;;2.70;1.38;;;7.20;94.00;;;;;;4947884;28;20079;-37
2023/03/17 05:52:27;;;;;;;3.47;1.50;;;7.30;94.00;;;;;;4941123;28;20573;-37
2023/03/17 05:54:53;;;;;;;3.03;1.17;;;7.30;94.00;;;;;;4947286;28;20426;-37
2023/03/17 05:57:20;;;;;;;2.47;1.20;;;7.30;94.00;;;;;;4941787;28;20050;-38
2023/03/17 05:59:46;;;;;;;3.03;1.40;;;7.30;93.90;;;;;;4942918;28;20057;-37
2023/03/17 06:02:12;;;;;;;4.10;1.30;;;7.30;93.90;;;;;;4943171;28;20104;-37
2023/03/17 06:04:38;;;;;;;3.05;1.30;;;7.30;94.00;;;;;;4945551;28;20051;-37
2023/03/17 06:07:04;;;;;;;5.00;1.40;;;7.40;93.90;;;;;;4937996;28;20125;-36
2023/03/17 06:09:30;;;;;;;4.88;1.35;;;7.40;93.90;;;;;;4942530;28;20071;-37
2023/03/17 06:11:56;;;;;;;4.07;1.58;;;7.40;94.00;;;;;;4942389;28;20142;-37
2023/03/17 06:14:22;;;;;;;3.25;1.45;;;7.50;94.00;;;;;;4942378;28;20488;-37
2023/03/17 06:16:48;;;;;;;2.65;1.30;;;7.40;93.90;;;;;;4942025;28;20256;-38
2023/03/17 06:19:13;;;;;;;4.88;1.67;;;7.40;94.00;;;;;;4940047;28;20074;-37
2023/03/17 06:21:40;;;;;;;5.07;1.42;;;7.50;94.00;;;;;;4935255;28;20066;-37
2023/03/17 06:24:06;;;;;;;2.85;1.30;;;7.50;94.10;;;;;;4941286;28;20071;-37
2023/03/17 06:26:32;;;;;;;3.40;1.63;;;7.50;94.10;;;;;;4941238;28;20079;-37
2023/03/17 06:28:58;;;;;;;4.18;1.65;;;7.50;94.10;;;;;;4938446;28;20172;-37
2023/03/17 06:31:23;;;;;;;3.47;1.50;;;7.50;94.00;;;;;;4940569;28;20059;-37
2023/03/17 06:33:49;;;;;;;4.70;1.50;;;7.60;94.10;;;;;;4940630;28;20059;-37
2023/03/17 06:36:15;;;;;;;3.25;1.35;;;7.60;94.00;;;;;;4944902;28;20051;-50
2023/03/17 06:38:42;;;;;;;3.75;1.45;;;7.60;94.00;;;;;;4939767;28;20055;-47
2023/03/17 06:41:08;;;;;;;3.97;1.40;;;7.70;93.90;;;;;;4943019;28;20508;-44
2023/03/17 06:43:35;;;;;;;3.35;1.52;;;7.70;93.90;;;;;;4940888;28;20146;-43
2023/03/17 06:46:00;;;;;;;4.57;1.30;;;7.80;93.90;;;;;;4939110;28;21004;-47
2023/03/17 06:48:27;;;;;;;3.33;1.70;;;7.80;93.80;;;;;;4937868;28;20051;-46
2023/03/17 06:50:53;;;;;;;4.53;1.63;;;7.80;93.70;;;;;;4936011;29;20908;-45
2023/03/17 06:53:19;;;;;;;4.40;1.73;;;7.80;93.70;;;;;;4939885;28;20078;-47
2023/03/17 06:55:45;;;;;;;3.58;1.20;;;7.90;93.60;;;;;;4937846;28;20102;-44
2023/03/17 06:58:12;;;;;;;4.55;1.40;;;7.90;93.70;;;;;;4939362;28;20422;-46
2023/03/17 07:00:38;;;;;;;3.25;1.38;;;7.90;93.50;;;;;;4938153;28;20086;-45
2023/03/17 07:03:05;;;;;;;4.53;1.67;;;7.90;93.50;;;;;;4938223;28;20062;-47
2023/03/17 07:05:32;;;;;;;6.22;1.80;;;7.90;93.60;;;;;;4939251;28;20054;-44
2023/03/17 07:07:58;;;;;;;3.75;1.70;;;7.90;93.60;;;;;;4935268;28;20050;-45
2023/03/17 07:10:24;;;;;;;5.43;1.60;;;7.90;93.70;;;;;;4939121;28;20055;-46
2023/03/17 07:12:50;;;;;;;4.18;1.60;;;7.90;93.80;;;;;;4937320;28;20048;-47
2023/03/17 07:15:16;;;;;;;3.58;1.45;;;7.80;93.90;;;;;;4935918;28;20043;-45
2023/03/17 07:17:42;;;;;;;4.07;1.38;;;7.90;93.90;;;;;;4934792;28;20504;-44
2023/03/17 07:20:09;;;;;;;3.78;1.83;;;7.90;94.00;;;;;;4942255;28;20039;-45
2023/03/17 07:22:35;;;;;;;4.65;1.77;;;7.90;94.00;;;;;;4945516;28;20055;-46
2023/03/17 07:25:00;;;;;;;4.68;1.75;;;8.00;94.00;;;;;;4941526;28;20059;-46
2023/03/17 07:27:26;;;;;;;7.97;1.63;;;8.00;93.90;;;;;;4941318;28;20055;-43
2023/03/17 07:29:52;;;;;;;6.47;1.70;;;8.10;93.90;;;;;;4940364;28;20146;-48
2023/03/17 07:32:18;;;;;;;6.30;1.70;;;8.10;93.90;;;;;;4942116;28;20051;-47
2023/03/17 07:34:43;;;;;;;5.75;2.08;;;8.20;93.80;;;;;;4943109;28;20058;-45
2023/03/17 07:37:09;;;;;;;3.83;1.70;;;8.20;93.70;;;;;;4944438;28;20051;-46
2023/03/17 07:39:35;;;;;;;4.63;1.92;;;8.20;93.60;;;;;;4942698;28;20055;-45
2023/03/17 07:42:01;;;;;;;6.45;1.48;;;8.30;93.50;;;;;;4944121;28;20961;-47
2023/03/17 07:44:27;;;;;;;4.78;1.80;;;8.30;93.30;;;;;;4949842;28;20157;-50
2023/03/17 07:46:53;;;;;;;3.30;1.30;;;8.40;93.20;;;;;;4943855;28;20502;-48
2023/03/17 07:49:19;;;;;;;3.03;1.60;;;8.40;93.10;;;;;;4944177;28;20166;-48
2023/03/17 07:51:45;;;;;;;3.92;1.80;;;8.50;93.00;;;;;;4940909;28;20106;-45
2023/03/17 07:54:12;;;;;;;4.60;1.63;;;8.50;93.10;;;;;;4942476;28;20135;-47
2023/03/17 07:56:38;;;;;;;4.00;1.42;;;8.60;92.90;;;;;;4936858;28;20526;-36
2023/03/17 07:59:06;;;;;;;4.25;1.88;;;8.70;92.90;;;;;;4932064;28;20059;-36
2023/03/17 08:01:32;;;;;;;5.07;1.75;;;8.70;92.70;;;;;;4935320;28;20069;-35
2023/03/17 08:03:58;;;;;;;3.40;1.70;;;8.80;92.50;;;;;;4939696;28;20505;-35
2023/03/17 08:06:24;;;;;;;4.90;1.60;;;8.90;92.40;;;;;;4936361;28;20058;-35
2023/03/17 08:08:53;;;;;;;3.17;1.70;;;8.90;92.30;;;;;;4936513;28;20527;-36
2023/03/17 08:11:19;;;;;;;4.43;1.80;;;9.00;92.30;;;;;;4943317;28;20121;-35
2023/03/17 08:13:45;;;;;;;7.07;1.40;;;9.00;92.40;;;;;;4942227;28;20059;-36
2023/03/17 08:16:11;;;;;;;3.15;1.40;;;9.00;92.30;;;;;;4947252;28;20118;-36
2023/03/17 08:18:37;;;;;;;3.60;1.70;;;9.10;92.30;;;;;;4944761;28;20055;-36
2023/03/17 08:21:04;;;;;;;4.20;1.92;;;9.00;92.20;;;;;;4950195;28;20047;-35
2023/03/17 08:23:30;;;;;;;3.17;1.73;;;9.10;91.90;;;;;;4944301;28;20061;-35
2023/03/17 08:26:00;;;;;;;3.63;1.65;;;9.10;92.00;;;;;;4945371;28;20129;-37
2023/03/17 08:28:26;;;;;;;3.90;1.80;;;9.10;92.30;;;;;;4942956;28;20620;-46
2023/03/17 08:30:53;;;;;;;3.63;1.67;;;9.10;92.30;;;;;;4943680;28;20043;-43
2023/03/17 08:33:19;;;;;;;4.22;1.73;;;9.10;92.40;;;;;;4941662;28;20603;-45
2023/03/17 08:35:45;;;;;;;3.70;1.80;;;9.10;92.50;;;;;;4944905;28;20054;-44
2023/03/17 08:38:11;;;;;;;4.55;1.55;;;9.10;92.60;;;;;;4942273;28;20051;-44
2023/03/17 08:40:39;;;;;;;3.38;1.80;;;9.20;92.70;;;;;;4941973;28;20055;-44
2023/03/17 08:43:05;;;;;;;4.57;2.00;;;9.10;92.70;;;;;;4944891;28;20070;-45
2023/03/17 08:45:31;;;;;;;4.05;1.95;;;9.20;93.00;;;;;;4946470;28;20047;-43
2023/03/17 08:47:56;;;;;;;3.83;1.70;;;9.10;93.00;;;;;;4941071;28;20393;-45
2023/03/17 08:50:23;;;;;;;6.40;1.88;;;9.20;93.10;;;;;;4935161;28;20101;-45
2023/03/17 08:52:50;;;;;;;4.28;1.60;;;9.30;92.90;;;;;;4942594;28;20559;-49
2023/03/17 08:55:17;;;;;;;6.00;1.67;;;9.40;92.80;;;;;;4941520;28;20465;-47
2023/03/17 08:57:43;;;;;;;4.00;1.80;;;9.60;92.70;;;;;;4944882;28;20501;-47
2023/03/17 09:00:11;;;;;;;4.40;2.03;;;9.80;92.70;;;;;;4944157;28;20055;-43
2023/03/17 09:02:39;;;;;;;6.32;1.67;;;9.90;92.40;;;;;;4950009;28;20092;-47
2023/03/17 09:05:06;;;;;;;3.97;1.83;;;10.00;92.00;;;;;;4950448;28;20205;-46
2023/03/17 09:07:32;;;;;;;6.32;1.88;;;10.10;91.90;;;;;;4948051;28;20067;-37
2023/03/17 09:09:59;;;;;;;4.20;1.98;;;10.10;91.50;;;;;;4942440;28;20449;-44
2023/03/17 09:12:25;;;;;;;5.63;1.92;;;10.20;91.50;;;;;;4947662;28;20070;-36
2023/03/17 09:14:51;;;;;;;7.35;2.33;;;10.30;90.90;;;;;;4944203;28;20050;-36
2023/03/17 09:17:16;;;;;;;5.05;2.00;;;10.30;91.30;;;;;;4943469;28;20066;-35
2023/03/17 09:19:42;;;;;;;4.57;1.73;;;10.40;91.30;;;;;;4942555;28;20139;-38
2023/03/17 09:22:13;;;;;;;5.82;2.00;;;10.50;91.10;;;;;;4949306;28;20085;-35
2023/03/17 09:24:38;;;;;;;6.85;2.05;;;10.60;90.90;;;;;;4944011;28;20047;-35
2023/03/17 09:27:05;;;;;;;5.55;2.13;;;10.70;91.00;;;;;;4945714;28;20063;-35
2023/03/17 09:29:32;;;;;;;5.13;1.70;;;10.80;91.10;;;;;;4947154;28;20059;-36
2023/03/17 09:31:58;;;;;;;3.60;1.98;;;10.90;91.00;;;;;;4937208;28;20122;-36
2023/03/17 09:34:24;;;;;;;5.97;1.80;;;11.10;90.90;;;;;;4945672;28;20069;-36
2023/03/17 09:36:53;;;;;;;6.90;1.80;;;11.10;90.80;;;;;;4948331;28;20058;-36
2023/03/17 09:39:21;;;;;;;4.47;1.83;;;11.30;90.00;;;;;;4943906;28;20484;-36
2023/03/17 09:42:00;;;;;;;2.88;1.60;;;11.40;90.10;;;;;;4945891;28;20477;-36
2023/03/17 09:44:32;;;;;;;5.13;2.50;;;11.40;89.50;;;;;;4945041;28;20072;-36
2023/03/17 09:47:25;;;;;;;4.22;1.65;;;11.50;89.50;;;;;;4947304;28;20051;-36
2023/03/17 09:49:55;;;;;;;;;;;11.60;89.10;;;;;;4943644;28;20170;-36
2023/03/17 09:52:30;;;;;;;5.03;1.88;;;11.70;88.40;;;;;;4945445;28;20001;-36
2023/03/17 09:54:56;;;;;;;5.05;1.92;;;11.80;87.80;;;;;;4936247;28;20107;-36
2023/03/17 09:57:28;;;;;;;5.20;1.73;;;11.90;88.40;;;;;;4948581;28;20043;-36
2023/03/17 10:00:15;;;;;;;6.28;2.05;;;12.00;87.70;;;;;;4939612;28;20107;-36
2023/03/17 10:02:42;;;;;;;4.97;2.08;;;12.10;87.90;;;;;;4944854;28;20071;-35
2023/03/17 10:05:26;;;;;;;3.40;1.70;;;12.20;87.60;;;;;;4941993;28;20551;-35
2023/03/17 10:07:57;;;;;;;4.32;1.65;;;12.30;87.80;;;;;;4947871;28;20055;-35
2023/03/17 10:10:47;;;;;;;5.53;2.13;;;12.40;87.70;;;;;;4942303;28;20090;-35
2023/03/17 10:13:53;;;;;;;3.85;2.05;;;12.50;86.80;;;;;;4940999;28;20188;-35
2023/03/17 10:16:26;;;;;;;4.07;1.80;;;12.60;84.80;;;;;;4944564;28;20114;-35
2023/03/17 10:18:56;;;;;;;;;;;12.70;85.40;;;;;;4944623;28;20119;-36
2023/03/17 10:21:28;;;;;;;3.80;1.90;;;12.80;82.60;;;;;;4944624;28;19984;-37
2023/03/17 10:23:56;;;;;;;3.55;2.08;;;12.90;85.00;;;;;;4948019;28;20067;-35
2023/03/17 10:26:28;;;;;;;6.22;2.00;;;13.00;84.10;;;;;;4946730;28;20058;-48
2023/03/17 10:28:54;;;;;;;5.07;2.15;;;13.10;83.30;;;;;;4947332;28;20117;-35
2023/03/17 10:31:28;;;;;;;4.50;2.10;;;13.30;83.10;;;;;;4943950;28;20122;-37
2023/03/17 10:33:55;;;;;;;3.90;1.90;;;13.50;81.50;;;;;;4938724;28;20055;-35
2023/03/17 10:36:39;;;;;;;5.78;2.15;;;13.70;81.50;;;;;;4946620;28;20059;-35
2023/03/17 10:39:09;;;;;;;4.13;1.77;;;13.80;78.80;;;;;;4945603;28;20059;-35
2023/03/17 10:41:39;;;;;;;3.70;2.13;;;13.90;79.10;;;;;;4947190;28;20059;-48
2023/03/17 10:44:22;;;;;;;4.32;1.90;;;14.00;79.30;;;;;;4944438;28;20587;-45
2023/03/17 10:46:53;;;;;;;11.43;2.20;;;14.20;79.10;;;;;;4940938;28;20116;-45
2023/03/17 10:49:23;;;;;;;4.72;1.80;;;14.30;79.00;;;;;;4937710;28;20051;-47
2023/03/17 10:51:51;;;;;;;5.55;2.38;;;14.40;77.10;;;;;;4941264;28;20110;-48
2023/03/17 10:54:18;;;;;;;4.00;1.90;;;14.40;78.30;;;;;;4942325;28;20055;-47
2023/03/17 10:56:47;;;;;;;3.90;2.05;;;14.40;76.70;;;;;;4943416;28;20175;-47
2023/03/17 10:59:26;;;;;;;3.75;1.98;;;14.50;77.20;;;;;;4944980;28;20047;-44
2023/03/17 11:01:56;;;;;;;5.35;2.15;;;14.40;75.00;;;;;;4934444;28;20066;-46
2023/03/17 11:04:32;;;;;;;7.25;2.42;;;14.40;76.40;;;;;;4939266;28;20594;-46
2023/03/17 11:07:03;;;;;;;6.32;2.33;;;14.40;75.90;;;;;;4943118;28;20070;-46
2023/03/17 11:09:34;;;;;;;5.43;2.00;;;14.40;77.30;;;;;;4938558;28;20109;-47
2023/03/17 11:12:21;;;;;;;4.03;2.05;;;14.50;77.80;;;;;;4934358;28;20446;-47
2023/03/17 11:14:48;;;;;;;5.43;2.30;;;14.60;76.10;;;;;;4939874;28;20166;-48
2023/03/17 11:17:21;;;;;;;4.53;2.30;;;14.70;76.10;;;;;;4938477;29;20098;-48
2023/03/17 11:20:05;;;;;;;4.40;2.08;;;14.80;74.60;;;;;;4937945;28;20067;-49
2023/03/17 11:22:30;;;;;;;6.00;2.20;;;15.00;74.70;;;;;;4938521;28;20090;-47
2023/03/17 11:25:18;;;;;;;5.38;1.90;;;15.10;74.20;;;;;;4944130;28;20074;-49
2023/03/17 11:27:59;;;;;;;4.07;1.92;;;15.10;74.20;;;;;;4944947;28;20090;-48
2023/03/17 11:30:35;;;;;;;4.45;2.10;;;15.10;73.10;;;;;;4942513;28;20556;-47
2023/03/17 11:33:17;;;;;;;5.65;2.00;;;15.10;74.10;;;;;;4943080;29;20059;-49
2023/03/17 11:35:48;;;;;;;3.88;1.80;;;15.20;73.50;;;;;;4943012;28;20047;-45
2023/03/17 11:38:24;;;;;;;3.73;1.80;;;15.30;72.00;;;;;;4946660;28;20090;-47
2023/03/17 11:40:53;;;;;;;4.63;1.90;;;15.40;71.80;;;;;;4947860;28;20047;-47
2023/03/17 11:43:47;;;;;;;4.05;2.00;;;15.50;71.30;;;;;;4949093;28;20079;-47
2023/03/17 11:46:38;;;;;;;5.15;1.90;;;15.50;70.50;;;;;;4945036;28;20050;-48
2023/03/17 11:49:21;;;;;;;4.00;1.90;;;15.50;69.70;;;;;;4946056;28;20051;-44
2023/03/17 11:51:59;;;;;;;4.18;2.17;;;15.50;71.10;;;;;;4944807;28;20067;-48
2023/03/17 11:54:33;;;;;;;5.72;2.15;;;15.60;69.10;;;;;;4938711;28;20058;-37
2023/03/17 11:57:07;;;;;;;5.25;1.80;;;15.70;70.60;;;;;;4942627;28;20065;-37
2023/03/17 12:00:22;;;;;;;4.85;2.03;;;15.70;69.50;;;;;;4934711;28;20044;-37
2023/03/17 12:03:09;;;;;;;5.72;1.80;;;15.80;69.90;;;;;;4891227;29;20075;-37
2023/03/17 12:05:36;;;;;;;3.80;1.92;;;15.90;70.40;;;;;;4905247;29;20064;-37
2023/03/17 12:08:13;;;;;;;3.75;2.05;;;16.00;70.30;;;;;;4936932;28;20059;-38
2023/03/17 12:10:46;;;;;;;6.90;2.35;;;16.10;69.10;;;;;;4949394;28;20046;-37
2023/03/17 12:13:28;;;;;;;4.03;1.90;;;16.10;68.90;;;;;;4942541;28;20102;-36
2023/03/17 12:16:05;;;;;;;6.32;3.25;;;16.20;68.90;;;;;;4931133;28;20052;-36
2023/03/17 12:18:37;;;;;;;3.90;1.50;;;16.20;69.00;;;;;;4937405;28;20054;-37
2023/03/17 12:21:27;;;;;;;5.00;1.80;;;16.10;69.80;;;;;;4952970;28;20496;-36
2023/03/17 12:24:01;;;;;;;5.57;2.20;;;16.10;71.30;;;;;;4951985;28;20177;-35
2023/03/17 12:26:46;;;;;;;4.32;2.15;;;16.10;70.70;;;;;;4948827;28;20509;-36
2023/03/17 12:29:24;;;;;;;3.83;1.70;;;16.10;71.60;;;;;;4946946;28;20571;-41
2023/03/17 12:32:07;;;;;;;3.55;1.98;;;16.10;71.10;;;;;;4941848;28;20063;-38
2023/03/17 12:34:53;;;;;;;5.28;2.17;;;16.00;70.30;;;;;;4941167;28;20051;-37
2023/03/17 12:37:20;;;;;;;5.90;2.28;;;16.00;70.90;;;;;;4946936;28;20067;-37
2023/03/17 12:39:57;;;;;;;5.97;2.28;;;16.00;72.00;;;;;;4946119;28;20052;-36
2023/03/17 12:42:45;;;;;;;5.53;2.50;;;16.10;71.80;;;;;;4949909;28;20055;-36
2023/03/17 12:45:27;;;;;;;5.32;2.22;;;16.40;71.70;;;;;;4947908;28;20055;-37
2023/03/17 12:48:01;;;;;;;7.53;3.05;;;16.80;70.30;;;;;;4946480;29;20055;-37
2023/03/17 12:50:33;;;;;;;6.07;2.70;;;17.10;68.40;;;;;;4946064;28;20059;-38
2023/03/17 12:53:04;;;;;;;6.63;2.60;;;17.10;67.10;;;;;;4947518;28;20066;-36
2023/03/17 12:55:32;;;;;;;5.60;2.97;;;17.10;67.40;;;;;;4951976;28;20051;-37
2023/03/17 12:58:14;;;;;;;4.75;2.80;;;17.10;65.80;;;;;;4952086;28;20524;-45
2023/03/17 13:01:04;;;;;;;5.73;3.03;;;17.20;66.80;;;;;;4944724;28;20062;-37
2023/03/17 13:03:36;;;;;;;6.28;3.15;;;17.30;67.00;;;;;;4945033;28;20159;-36
2023/03/17 13:06:04;;;;;;;;;;;17.30;67.00;;;;;;4946247;29;20145;-36
2023/03/17 13:08:34;;;;;;;7.93;3.13;;;17.30;66.40;;;;;;4950956;28;19918;-38